Time;durP1;ratioP1;P1;durP2;ratioP2;P2;SDS_P1;SDS_P2;PMS_P1;PMS_P2;Temp;Humidity;BMP_temperature;BMP_pressure;BME280_temperature;BME280_humidity;BME280_pressure;Samples;Min_cycle;Max_cycle;Signal;HPM_P1;HPM_P2
2022/08/31 00:04:11;;;;;;;5.90;3.67;;;20.70;1.00;;;;;;5045679;28;20457;-72
2022/08/31 00:06:37;;;;;;;5.53;3.47;;;20.70;1.00;;;;;;5050522;28;20490;-72
2022/08/31 00:09:05;;;;;;;5.00;2.90;;;20.70;1.00;;;;;;5046370;28;20423;-72
2022/08/31 00:11:48;;;;;;;8.90;4.07;;;20.70;1.00;;;;;;5040536;28;20455;-78
2022/08/31 00:14:30;;;;;;;4.80;3.40;;;20.70;1.00;;;;;;5034695;28;20814;-78
2022/08/31 00:17:41;;;;;;;5.17;3.50;;;20.70;1.00;;;;;;5041974;28;20451;-78
2022/08/31 00:20:14;;;;;;;6.73;3.40;;;20.70;1.00;;;;;;5016246;28;20377;-78
2022/08/31 00:26:58;;;;;;;6.30;3.63;;;20.70;1.00;;;;;;5045623;28;20436;-79
2022/08/31 00:29:30;;;;;;;6.67;4.23;;;20.60;1.00;;;;;;5034190;28;20395;-78
2022/08/31 00:32:30;;;;;;;7.23;3.20;;;20.60;1.00;;;;;;5019412;28;20457;-78
2022/08/31 00:41:40;;;;;;;3.70;3.20;;;20.70;1.00;;;;;;5046865;28;20464;-72
2022/08/31 00:44:08;;;;;;;4.67;3.33;;;20.70;1.00;;;;;;5034573;28;20504;-72
2022/08/31 00:46:40;;;;;;;5.27;3.47;;;20.70;1.00;;;;;;5033210;28;20514;-72
2022/08/31 00:49:20;;;;;;;7.30;2.97;;;20.80;1.00;;;;;;5047409;28;20396;-72
2022/08/31 00:51:56;;;;;;;10.03;3.83;;;20.80;1.00;;;;;;5048896;28;20540;-72
2022/08/31 00:54:29;;;;;;;5.60;3.40;;;20.90;1.00;;;;;;5036159;28;20769;-72
2022/08/31 00:56:55;;;;;;;3.93;3.40;;;20.90;1.00;;;;;;5038378;28;20462;-72
2022/08/31 00:59:21;;;;;;;9.60;3.60;;;20.90;1.00;;;;;;5050374;28;20411;-72
2022/08/31 01:01:48;;;;;;;4.53;3.43;;;20.90;1.00;;;;;;5035303;28;20440;-72
2022/08/31 01:04:13;;;;;;;5.27;3.80;;;20.90;1.00;;;;;;5033449;28;20406;-72
2022/08/31 01:06:41;;;;;;;3.93;3.23;;;20.90;1.00;;;;;;5037348;28;20439;-72
2022/08/31 01:09:07;;;;;;;4.70;3.57;;;21.00;1.00;;;;;;5053162;28;20259;-72
2022/08/31 01:11:35;;;;;;;4.13;3.73;;;21.00;1.00;;;;;;5036557;28;20459;-72
2022/08/31 01:14:01;;;;;;;5.90;3.73;;;21.00;1.00;;;;;;5033527;28;20421;-72
2022/08/31 01:17:02;;;;;;;4.30;3.27;;;21.00;1.00;;;;;;5037864;28;20436;-72
2022/08/31 01:19:34;;;;;;;7.63;4.17;;;21.00;1.00;;;;;;4994863;28;20967;-72
2022/08/31 01:22:21;;;;;;;15.27;3.60;;;21.00;1.00;;;;;;4998775;28;20401;-72
2022/08/31 01:24:49;;;;;;;6.00;3.40;;;21.00;1.00;;;;;;4982966;28;20422;-72
2022/08/31 01:27:41;;;;;;;3.57;3.27;;;21.00;1.00;;;;;;5005130;28;20400;-78
2022/08/31 01:30:30;;;;;;;4.37;3.13;;;21.00;1.00;;;;;;4991561;28;20950;-78
2022/08/31 01:33:35;;;;;;;4.30;3.50;;;21.00;1.00;;;;;;4982578;28;20801;-78
2022/08/31 01:36:24;;;;;;;7.67;3.73;;;21.00;1.00;;;;;;4997286;28;20436;-78
2022/08/31 01:38:50;;;;;;;3.40;3.10;;;21.00;1.00;;;;;;4995005;28;20472;-78
2022/08/31 01:41:42;;;;;;;4.10;3.40;;;21.00;1.00;;;;;;5012148;28;20409;-78
2022/08/31 01:44:53;;;;;;;9.63;3.93;;;21.00;1.00;;;;;;4990687;28;20424;-78
2022/08/31 01:47:53;;;;;;;6.10;3.20;;;21.00;1.00;;;;;;5006198;28;20433;-78
2022/08/31 01:57:02;;;;;;;13.10;3.60;;;20.90;1.00;;;;;;5028127;28;20427;-72
2022/08/31 01:59:29;;;;;;;4.77;3.80;;;20.90;1.00;;;;;;5045626;28;20415;-73
2022/08/31 02:02:00;;;;;;;5.00;3.90;;;20.90;1.00;;;;;;5045687;28;20192;-72
2022/08/31 02:04:28;;;;;;;5.17;3.77;;;20.90;1.00;;;;;;5026868;28;20437;-72
2022/08/31 02:06:56;;;;;;;6.00;3.47;;;20.90;1.00;;;;;;5022103;28;20804;-72
2022/08/31 02:09:23;;;;;;;4.30;3.90;;;20.90;1.00;;;;;;5031007;28;20444;-72
2022/08/31 02:18:34;;;;;;;4.50;3.80;;;20.90;1.00;;;;;;5028107;28;20481;-78
2022/08/31 02:21:18;;;;;;;5.57;3.67;;;20.80;1.00;;;;;;5034259;28;20772;-78
2022/08/31 02:23:54;;;;;;;5.97;4.00;;;20.80;1.00;;;;;;5035033;28;20431;-78
2022/08/31 02:26:41;;;;;;;6.30;3.40;;;20.80;1.00;;;;;;5036452;28;20424;-78
2022/08/31 02:29:07;;;;;;;4.80;3.40;;;20.80;1.00;;;;;;5049920;28;20419;-72
2022/08/31 02:31:33;;;;;;;5.43;3.80;;;20.80;1.00;;;;;;5034837;28;20512;-72
2022/08/31 02:33:59;;;;;;;5.03;3.70;;;20.80;1.00;;;;;;5038735;28;20741;-72
2022/08/31 02:36:25;;;;;;;10.47;3.43;;;20.80;1.00;;;;;;5047172;28;20174;-72
2022/08/31 02:38:51;;;;;;;4.87;4.00;;;20.90;1.00;;;;;;5051368;28;20497;-72
2022/08/31 02:41:16;;;;;;;5.43;3.93;;;20.80;1.00;;;;;;5035878;28;20210;-72
2022/08/31 02:43:43;;;;;;;8.60;4.00;;;20.90;1.00;;;;;;5051401;28;20426;-72
2022/08/31 02:46:09;;;;;;;5.63;3.90;;;20.90;1.00;;;;;;5037016;28;20264;-73
2022/08/31 02:48:35;;;;;;;5.53;3.80;;;20.80;1.00;;;;;;5036877;28;20514;-72
2022/08/31 02:51:07;;;;;;;9.20;3.60;;;20.90;1.00;;;;;;5048197;28;20203;-72
2022/08/31 02:53:34;;;;;;;5.60;3.50;;;20.80;1.00;;;;;;5037108;28;20412;-73
2022/08/31 02:55:59;;;;;;;5.20;3.77;;;20.80;1.00;;;;;;5056153;28;20884;-72
2022/08/31 02:58:25;;;;;;;8.33;4.50;;;20.80;1.00;;;;;;5040565;28;20439;-73
2022/08/31 03:00:51;;;;;;;5.37;3.60;;;20.70;1.00;;;;;;5036119;28;20182;-72
2022/08/31 03:03:17;;;;;;;5.93;3.67;;;20.60;1.00;;;;;;5035817;28;20182;-72
2022/08/31 03:05:48;;;;;;;9.80;4.43;;;20.70;1.00;;;;;;5036033;28;20890;-72
2022/08/31 03:08:14;;;;;;;4.17;3.47;;;20.70;1.00;;;;;;5035680;28;20447;-72
2022/08/31 03:10:42;;;;;;;5.87;4.00;;;20.70;1.00;;;;;;5039578;28;20521;-73
2022/08/31 03:13:08;;;;;;;6.63;3.93;;;20.60;1.00;;;;;;5035330;28;20180;-78
2022/08/31 03:18:56;;;;;;;8.03;4.00;;;20.60;1.00;;;;;;5033471;28;20188;-78
2022/08/31 03:21:41;;;;;;;10.53;3.83;;;20.60;1.00;;;;;;5040674;28;20399;-78
2022/08/31 03:24:19;;;;;;;9.03;4.17;;;20.60;1.00;;;;;;5035941;28;20434;-78
2022/08/31 03:27:00;;;;;;;3.77;3.47;;;20.60;1.00;;;;;;5046362;28;20895;-78
2022/08/31 03:36:47;;;;;;;4.63;4.10;;;20.50;1.00;;;;;;5029480;28;20443;-79
2022/08/31 03:39:13;;;;;;;7.63;4.57;;;20.50;1.00;;;;;;5047591;28;20407;-78
2022/08/31 03:42:06;;;;;;;7.10;4.40;;;20.50;1.00;;;;;;5039190;28;20424;-78
2022/08/31 03:47:54;;;;;;;5.00;3.87;;;20.50;1.00;;;;;;5036162;28;20414;-79
2022/08/31 03:50:20;;;;;;;6.00;3.83;;;20.50;1.00;;;;;;5045304;28;20400;-78
2022/08/31 03:56:08;;;;;;;5.70;3.90;;;20.50;1.00;;;;;;5015413;28;20517;-79
2022/08/31 03:58:35;;;;;;;4.40;3.97;;;20.50;1.00;;;;;;5025707;28;20935;-72
2022/08/31 04:01:01;;;;;;;6.80;4.10;;;20.50;1.00;;;;;;5034443;28;20183;-72
2022/08/31 04:03:28;;;;;;;10.50;4.10;;;20.50;1.00;;;;;;5036739;28;20518;-73
2022/08/31 04:05:54;;;;;;;7.97;4.40;;;20.50;1.00;;;;;;5053859;28;20183;-73
2022/08/31 04:08:21;;;;;;;16.50;4.03;;;20.50;1.00;;;;;;5041866;28;20427;-73
2022/08/31 04:10:49;;;;;;;12.27;4.37;;;20.50;1.00;;;;;;5051667;28;20454;-72
2022/08/31 04:36:48;;;;;;;3.93;3.63;;;20.40;1.00;;;;;;5027965;28;20960;-81
2022/08/31 04:42:37;;;;;;;10.07;4.00;;;20.40;1.00;;;;;;5053009;28;20162;-81
2022/08/31 04:48:47;;;;;;;6.37;4.50;;;20.50;1.00;;;;;;5026092;28;20434;-82
2022/08/31 04:54:54;;;;;;;7.10;4.63;;;20.50;1.00;;;;;;5033445;28;20427;-81
2022/08/31 05:00:42;;;;;;;11.23;3.70;;;20.50;1.00;;;;;;5043461;28;20402;-84
2022/08/31 05:03:19;;;;;;;9.47;4.37;;;20.60;1.00;;;;;;5036299;28;20775;-84
2022/08/31 05:09:10;;;;;;;10.37;4.20;;;20.50;1.00;;;;;;5037506;28;20389;-84
2022/08/31 05:18:49;;;;;;;5.63;4.00;;;20.60;1.00;;;;;;5040900;28;20410;-81
2022/08/31 05:28:01;;;;;;;7.43;4.37;;;20.70;1.00;;;;;;5025996;28;20426;-80
2022/08/31 05:31:17;;;;;;;7.40;4.57;;;20.70;1.00;;;;;;5039931;28;20423;-84
2022/08/31 05:34:19;;;;;;;16.90;4.40;;;20.70;1.00;;;;;;5032616;28;20966;-83
2022/08/31 05:36:50;;;;;;;11.43;4.23;;;20.70;1.00;;;;;;5046879;28;20522;-83
2022/08/31 05:42:37;;;;;;;5.43;4.27;;;20.60;1.00;;;;;;5043869;28;20453;-84
2022/08/31 05:45:47;;;;;;;10.83;4.20;;;20.60;1.00;;;;;;5038970;28;20430;-81
2022/08/31 05:48:18;;;;;;;8.10;4.33;;;20.70;1.00;;;;;;5038913;28;20187;-84
2022/08/31 05:50:48;;;;;;;20.97;4.60;;;20.70;1.00;;;;;;5040914;28;20442;-84
2022/08/31 05:53:18;;;;;;;6.03;4.13;;;20.70;1.00;;;;;;5013922;28;20449;-81
2022/08/31 05:55:48;;;;;;;14.20;4.90;;;20.60;1.00;;;;;;5030278;28;20435;-82
2022/08/31 06:01:48;;;;;;;11.17;5.00;;;20.50;1.00;;;;;;5048771;28;20927;-84
2022/08/31 06:04:50;;;;;;;10.83;5.23;;;20.50;1.00;;;;;;5048068;28;20833;-84
2022/08/31 06:07:21;;;;;;;65.73;6.23;;;20.50;1.00;;;;;;5046679;28;20453;-84
2022/08/31 06:09:47;;;;;;;10.80;4.80;;;20.50;1.00;;;;;;5038063;28;20413;-84
2022/08/31 06:18:58;;;;;;;6.77;4.83;;;20.40;1.00;;;;;;5034105;28;20497;-82
2022/08/31 06:21:32;;;;;;;10.63;4.77;;;20.40;1.00;;;;;;5026922;28;20940;-82
2022/08/31 06:24:18;;;;;;;15.83;4.30;;;20.40;1.00;;;;;;5036427;28;20431;-82
2022/08/31 06:27:06;;;;;;;12.43;4.90;;;20.40;1.00;;;;;;5036398;28;20400;-82
2022/08/31 06:30:00;;;;;;;8.17;4.37;;;20.40;1.00;;;;;;5046298;28;20449;-83
2022/08/31 06:32:47;;;;;;;9.43;4.37;;;20.40;1.00;;;;;;5035253;28;20898;-83
2022/08/31 06:35:47;;;;;;;5.10;4.20;;;20.40;1.00;;;;;;5050058;28;20414;-82
2022/08/31 06:38:47;;;;;;;5.60;4.20;;;20.40;1.00;;;;;;5048226;28;20470;-82
2022/08/31 06:44:42;;;;;;;4.97;4.00;;;20.40;1.00;;;;;;5041184;28;20975;-84
2022/08/31 06:47:47;;;;;;;5.60;3.93;;;20.40;1.00;;;;;;5029415;28;20492;-84
2022/08/31 06:53:48;;;;;;;3.87;3.43;;;20.50;1.00;;;;;;5044070;28;20454;-84
2022/08/31 06:56:20;;;;;;;6.43;4.27;;;20.60;1.00;;;;;;5035790;28;20419;-83
2022/08/31 06:58:47;;;;;;;5.20;3.80;;;20.70;1.00;;;;;;5034988;28;20413;-84
2022/08/31 07:01:18;;;;;;;7.50;3.80;;;20.70;1.00;;;;;;5034209;28;20414;-84
2022/08/31 07:03:47;;;;;;;6.13;3.53;;;20.80;1.00;;;;;;5046027;28;20438;-84
2022/08/31 07:06:20;;;;;;;6.00;4.30;;;20.90;1.00;;;;;;5032847;28;20432;-84
2022/08/31 07:08:51;;;;;;;7.13;4.10;;;20.90;1.00;;;;;;5032958;28;20448;-84
2022/08/31 07:11:50;;;;;;;7.37;3.93;;;20.90;1.00;;;;;;5043799;28;20819;-84
2022/08/31 07:14:44;;;;;;;16.57;4.00;;;21.00;1.00;;;;;;5019070;28;20504;-84
2022/08/31 07:21:20;;;;;;;6.93;4.33;;;21.20;1.00;;;;;;5035176;28;20472;-83
2022/08/31 07:24:22;;;;;;;4.80;3.37;;;21.30;1.00;;;;;;5012552;28;20800;-82
2022/08/31 07:27:17;;;;;;;7.27;4.17;;;21.50;1.00;;;;;;5028310;28;20492;-83
2022/08/31 07:30:00;;;;;;;6.33;3.73;;;21.40;1.00;;;;;;5028893;28;20442;-86
2022/08/31 07:32:49;;;;;;;7.87;3.83;;;21.50;1.00;;;;;;5031430;28;20994;-82
2022/08/31 07:35:18;;;;;;;5.43;3.80;;;21.60;1.00;;;;;;5038366;28;20460;-79
2022/08/31 07:43:48;;;;;;;4.43;3.90;;;21.90;1.00;;;;;;5026801;28;20420;-82
2022/08/31 07:50:14;;;;;;;6.90;3.83;;;22.20;1.00;;;;;;5029991;28;20430;-83
2022/08/31 07:52:46;;;;;;;6.87;3.80;;;22.20;1.00;;;;;;5033219;28;20556;-84
2022/08/31 07:55:14;;;;;;;3.73;3.40;;;22.30;1.00;;;;;;5032139;28;20414;-84
2022/08/31 07:57:43;;;;;;;7.70;4.13;;;22.40;1.00;;;;;;5034826;28;20437;-84
2022/08/31 08:00:20;;;;;;;8.17;3.90;;;22.30;1.00;;;;;;5034470;28;20462;-84
2022/08/31 08:03:18;;;;;;;5.53;3.70;;;22.40;1.00;;;;;;5037774;28;20425;-84
2022/08/31 08:05:48;;;;;;;3.97;3.57;;;22.40;1.00;;;;;;5035526;28;20441;-84
2022/08/31 08:11:53;;;;;;;7.33;3.60;;;22.50;1.00;;;;;;5036831;28;20836;-83
2022/08/31 08:14:47;;;;;;;10.20;3.57;;;22.50;1.00;;;;;;5050575;28;20474;-84
2022/08/31 08:17:47;;;;;;;6.10;3.80;;;22.60;1.00;;;;;;5048690;28;20421;-84
2022/08/31 08:20:18;;;;;;;3.90;3.60;;;22.70;1.00;;;;;;5032590;28;20423;-84
2022/08/31 08:23:00;;;;;;;12.30;4.20;;;22.70;1.00;;;;;;5035044;28;20432;-84
2022/08/31 08:26:18;;;;;;;13.40;3.63;;;22.80;1.00;;;;;;5034074;28;20427;-84
2022/08/31 08:29:18;;;;;;;7.20;3.40;;;22.90;1.00;;;;;;5021446;28;20432;-84
2022/08/31 08:31:51;;;;;;;7.00;3.70;;;22.90;1.00;;;;;;5030549;28;20460;-84
2022/08/31 08:34:22;;;;;;;6.13;3.63;;;22.90;1.00;;;;;;5030649;28;20435;-84
2022/08/31 08:37:16;;;;;;;5.47;3.80;;;22.90;1.00;;;;;;5031389;28;20453;-85
2022/08/31 08:39:42;;;;;;;5.70;3.60;;;22.90;1.00;;;;;;5034817;28;20517;-85
2022/08/31 08:42:21;;;;;;;6.07;4.03;;;22.90;1.00;;;;;;5020200;28;20940;-84
2022/08/31 08:45:18;;;;;;;5.90;3.03;;;22.80;1.00;;;;;;5034606;28;20240;-84
2022/08/31 08:51:47;;;;;;;6.33;3.70;;;22.80;1.00;;;;;;5041151;28;20460;-83
2022/08/31 08:54:48;;;;;;;5.80;3.10;;;22.70;1.00;;;;;;5027203;28;20789;-82
2022/08/31 09:00:51;;;;;;;9.63;3.60;;;22.70;1.00;;;;;;5030635;28;20449;-82
2022/08/31 09:03:37;;;;;;;8.20;3.50;;;22.70;1.00;;;;;;5033590;28;20779;-82
2022/08/31 09:06:12;;;;;;;4.20;3.47;;;22.70;1.00;;;;;;5033558;28;20432;-82
2022/08/31 09:09:19;;;;;;;3.87;3.40;;;22.80;1.00;;;;;;5031924;28;20423;-83
2022/08/31 09:12:25;;;;;;;4.20;3.80;;;22.80;1.00;;;;;;5035964;28;20461;-82
2022/08/31 09:18:23;;;;;;;5.10;3.67;;;22.80;1.00;;;;;;5029878;28;20406;-84
2022/08/31 09:21:20;;;;;;;7.20;3.80;;;22.90;1.00;;;;;;5025482;28;20557;-84
2022/08/31 09:24:19;;;;;;;11.33;3.57;;;22.90;1.00;;;;;;5037984;28;20418;-84
2022/08/31 09:27:19;;;;;;;5.70;3.87;;;23.00;1.00;;;;;;5027501;28;20526;-84
2022/08/31 09:30:00;;;;;;;4.63;4.13;;;23.10;1.00;;;;;;5024995;28;20780;-84
2022/08/31 09:32:34;;;;;;;7.67;3.50;;;23.20;1.00;;;;;;5030032;28;20462;-84
2022/08/31 09:35:08;;;;;;;4.93;3.37;;;23.30;1.00;;;;;;5029563;28;20407;-85
2022/08/31 09:37:40;;;;;;;5.33;3.50;;;23.40;1.00;;;;;;5037217;28;20807;-84
2022/08/31 09:40:31;;;;;;;5.90;4.00;;;23.40;1.00;;;;;;5046219;28;20428;-85
2022/08/31 09:43:29;;;;;;;6.97;3.73;;;23.60;1.00;;;;;;5038645;28;20439;-84
2022/08/31 09:45:57;;;;;;;6.53;4.10;;;23.60;1.00;;;;;;5032766;28;20934;-85
2022/08/31 09:48:54;;;;;;;11.67;4.90;;;23.70;1.00;;;;;;5047264;28;20398;-84
2022/08/31 09:51:23;;;;;;;13.90;4.50;;;23.70;1.00;;;;;;5010273;28;20461;-85
2022/08/31 09:56:53;;;;;;;10.53;3.57;;;24.00;1.00;;;;;;5023090;28;20486;-77
2022/08/31 10:00:13;;;;;;;10.97;3.70;;;24.20;1.00;;;;;;5034189;28;20799;-78
2022/08/31 10:02:41;;;;;;;6.23;4.17;;;24.30;1.00;;;;;;5029559;28;20847;-80
2022/08/31 10:05:40;;;;;;;8.73;3.63;;;24.50;1.00;;;;;;5029591;28;20415;-84
2022/08/31 10:08:26;;;;;;;4.80;3.70;;;24.60;1.00;;;;;;4974392;28;21216;-84
2022/08/31 10:11:23;;;;;;;4.73;3.03;;;24.60;1.00;;;;;;4972461;28;20859;-84
2022/08/31 10:17:25;;;;;;;4.23;3.13;;;24.70;1.00;;;;;;4966929;28;20417;-84
2022/08/31 10:20:22;;;;;;;6.57;3.37;;;24.80;1.00;;;;;;4960989;28;20436;-82
2022/08/31 10:23:24;;;;;;;5.20;4.00;;;24.90;1.00;;;;;;4962396;28;20453;-83
2022/08/31 10:26:30;;;;;;;14.37;4.13;;;25.00;1.00;;;;;;4962592;28;20443;-82
2022/08/31 10:29:13;;;;;;;6.57;3.80;;;25.00;1.00;;;;;;4968631;28;20556;-83
2022/08/31 10:31:52;;;;;;;3.53;3.20;;;25.20;1.00;;;;;;4955424;28;20897;-83
2022/08/31 10:37:18;;;;;;;10.33;3.60;;;25.30;1.00;;;;;;4973839;28;20421;-83
2022/08/31 10:40:38;;;;;;;5.90;3.50;;;25.40;1.00;;;;;;4979223;28;20881;-83
2022/08/31 10:43:28;;;;;;;4.50;3.50;;;25.60;1.00;;;;;;4944581;29;20442;-82
2022/08/31 10:46:18;;;;;;;6.13;3.30;;;25.80;1.00;;;;;;5014497;28;20422;-81
2022/08/31 10:49:19;;;;;;;11.10;3.97;;;26.00;1.00;;;;;;5014211;28;20436;-80
2022/08/31 10:52:18;;;;;;;5.37;3.67;;;26.10;1.00;;;;;;4979713;28;20484;-80
2022/08/31 10:54:56;;;;;;;11.50;3.47;;;26.30;1.00;;;;;;5014313;28;20821;-81
2022/08/31 10:57:48;;;;;;;5.10;3.27;;;26.70;1.00;;;;;;5022667;28;20409;-80
2022/08/31 11:04:13;;;;;;;9.43;3.70;;;26.90;1.00;;;;;;5016612;28;20480;-80
2022/08/31 11:06:58;;;;;;;9.10;3.30;;;27.20;1.00;;;;;;5015123;28;20913;-80
2022/08/31 11:09:43;;;;;;;3.80;3.30;;;27.40;1.00;;;;;;5004653;28;20939;-80
2022/08/31 11:12:14;;;;;;;7.53;3.30;;;27.70;1.00;;;;;;5011778;28;20473;-80
2022/08/31 11:15:21;;;;;;;10.80;3.83;;;27.90;1.00;;;;;;5013900;28;20460;-80
2022/08/31 11:18:18;;;;;;;4.00;3.63;;;28.20;1.00;;;;;;5027636;28;20431;-80
2022/08/31 11:21:28;;;;;;;6.13;3.43;;;28.10;1.00;;;;;;5015029;28;20484;-80
2022/08/31 11:24:47;;;;;;;8.27;3.43;;;28.30;1.00;;;;;;5035660;28;20421;-79
2022/08/31 11:27:37;;;;;;;15.40;3.93;;;28.60;1.00;;;;;;5041568;28;20458;-80
2022/08/31 11:30:23;;;;;;;7.80;3.57;;;28.60;1.00;;;;;;5035733;28;20433;-80
2022/08/31 11:32:59;;;;;;;8.07;3.67;;;28.70;1.00;;;;;;5022600;28;20490;-81
2022/08/31 11:36:20;;;;;;;9.13;3.47;;;28.70;1.00;;;;;;5037207;28;20495;-80
2022/08/31 11:39:14;;;;;;;3.20;2.90;;;28.80;1.00;;;;;;5035055;28;20482;-80
2022/08/31 11:41:52;;;;;;;8.30;3.20;;;29.00;1.00;;;;;;5013557;28;20910;-80
2022/08/31 11:44:52;;;;;;;3.47;3.17;;;29.00;1.00;;;;;;5047308;28;20426;-81
2022/08/31 11:47:27;;;;;;;4.60;3.20;;;29.10;1.00;;;;;;5036857;28;20467;-80
2022/08/31 11:49:54;;;;;;;6.83;2.93;;;29.10;1.00;;;;;;5042244;28;20425;-80
2022/08/31 11:52:52;;;;;;;4.53;3.10;;;29.10;1.00;;;;;;5017814;28;20471;-80
2022/08/31 11:55:50;;;;;;;5.60;3.20;;;29.30;1.00;;;;;;5034559;28;21166;-80
2022/08/31 11:59:09;;;;;;;8.30;3.30;;;29.30;1.00;;;;;;5039027;28;20433;-80
2022/08/31 12:01:48;;;;;;;24.03;3.57;;;29.30;1.00;;;;;;5032173;28;20439;-80
2022/08/31 12:04:49;;;;;;;3.63;2.90;;;29.30;1.00;;;;;;5039719;28;20510;-80
2022/08/31 12:07:26;;;;;;;5.10;3.50;;;29.20;1.00;;;;;;5029051;28;20525;-80
2022/08/31 12:10:21;;;;;;;4.80;2.97;;;29.30;1.00;;;;;;5028001;28;20530;-80
2022/08/31 12:13:04;;;;;;;5.70;3.50;;;29.40;1.00;;;;;;4974022;28;20476;-85
2022/08/31 12:16:00;;;;;;;7.13;3.13;;;29.50;1.00;;;;;;4973249;28;20437;-84
2022/08/31 12:32:35;;;;;;;5.93;2.80;;;30.00;1.00;;;;;;4991223;28;20506;-82
2022/08/31 12:35:55;;;;;;;4.87;2.90;;;30.40;1.00;;;;;;4982651;28;20974;-82
2022/08/31 12:48:37;;;;;;;5.73;3.40;;;30.10;1.00;;;;;;4981340;28;20460;-84
2022/08/31 12:51:30;;;;;;;12.60;3.40;;;30.10;1.00;;;;;;5052217;28;20456;-85
2022/08/31 12:54:12;;;;;;;3.10;2.90;;;30.00;1.00;;;;;;5052585;28;20900;-85
2022/08/31 12:56:55;;;;;;;6.43;3.43;;;29.90;1.00;;;;;;5034251;28;20433;-85
2022/08/31 13:03:36;;;;;;;4.00;3.13;;;30.10;1.00;;;;;;5014247;28;20434;-84
2022/08/31 13:09:27;;;;;;;9.50;3.30;;;30.00;1.00;;;;;;5035135;28;20431;-82
2022/08/31 13:15:42;;;;;;;4.90;2.93;;;30.00;1.00;;;;;;5032752;28;20411;-81
2022/08/31 13:18:36;;;;;;;6.17;3.30;;;29.70;1.00;;;;;;5048656;28;20798;-79
2022/08/31 13:25:34;;;;;;;5.73;3.03;;;29.70;1.00;;;;;;5035601;28;20463;-82
2022/08/31 13:28:33;;;;;;;10.27;3.70;;;29.70;1.00;;;;;;4991442;28;20494;-82
2022/08/31 13:31:26;;;;;;;5.07;2.83;;;29.90;1.00;;;;;;4928461;29;20986;-82
2022/08/31 13:34:19;;;;;;;3.70;2.90;;;29.90;1.00;;;;;;4928556;29;20529;-84
2022/08/31 13:37:22;;;;;;;6.17;3.30;;;29.80;1.00;;;;;;4921470;29;20434;-84
2022/08/31 13:40:08;;;;;;;7.37;3.03;;;29.60;1.00;;;;;;4946544;29;20791;-83
2022/08/31 13:49:52;;;;;;;3.37;2.87;;;29.60;1.00;;;;;;4923455;29;20428;-84
2022/08/31 13:52:27;;;;;;;11.57;3.03;;;29.50;1.00;;;;;;4910649;29;20461;-83
2022/08/31 13:55:38;;;;;;;3.37;2.77;;;29.40;1.00;;;;;;4927678;29;20529;-83
2022/08/31 14:01:32;;;;;;;2.90;2.70;;;29.60;1.00;;;;;;4925053;28;20450;-83
2022/08/31 14:04:37;;;;;;;5.83;2.73;;;29.70;1.00;;;;;;4953766;28;20543;-84
2022/08/31 14:07:22;;;;;;;4.00;2.57;;;30.00;1.00;;;;;;5001310;28;20435;-84
2022/08/31 14:10:21;;;;;;;5.13;3.47;;;30.40;1.00;;;;;;5037910;28;20439;-84
2022/08/31 14:13:36;;;;;;;8.93;2.90;;;30.50;1.00;;;;;;5039813;28;21030;-79
2022/08/31 14:16:22;;;;;;;2.97;2.70;;;30.40;1.00;;;;;;5031937;28;20409;-77
2022/08/31 14:18:54;;;;;;;3.17;2.87;;;30.30;1.00;;;;;;5034994;28;20919;-77
2022/08/31 14:21:33;;;;;;;7.10;2.87;;;30.30;1.00;;;;;;5029444;28;20555;-80
2022/08/31 14:24:48;;;;;;;2.70;2.50;;;30.20;1.00;;;;;;5037319;28;20424;-80
2022/08/31 14:27:48;;;;;;;2.73;2.53;;;30.30;1.00;;;;;;5024753;28;20406;-80
2022/08/31 14:30:54;;;;;;;6.60;2.60;;;30.40;1.00;;;;;;5042202;28;20787;-79
2022/08/31 14:37:05;;;;;;;3.97;2.90;;;30.50;1.00;;;;;;5055167;28;20448;-81
2022/08/31 14:39:56;;;;;;;10.60;3.33;;;30.40;1.00;;;;;;5041251;28;20499;-81
2022/08/31 14:42:48;;;;;;;174.30;135.43;;;30.30;1.00;;;;;;5037126;28;20512;-81
2022/08/31 14:45:19;;;;;;;4.60;3.53;;;30.20;1.00;;;;;;5026169;28;20799;-75
2022/08/31 14:47:57;;;;;;;6.90;3.57;;;30.00;1.00;;;;;;5049732;28;20503;-75
2022/08/31 14:50:37;;;;;;;6.10;2.87;;;30.10;1.00;;;;;;5036088;28;20430;-77
2022/08/31 14:53:19;;;;;;;3.70;2.77;;;30.30;1.00;;;;;;5043692;28;20449;-77
2022/08/31 14:56:21;;;;;;;3.03;2.83;;;30.60;1.00;;;;;;5032639;28;20419;-78
2022/08/31 14:59:19;;;;;;;8.90;4.40;;;30.60;1.00;;;;;;5022854;28;20411;-79
2022/08/31 15:08:36;;;;;;;3.30;2.40;;;30.30;1.00;;;;;;5050507;28;20425;-89
2022/08/31 15:11:08;;;;;;;2.97;2.73;;;30.20;1.00;;;;;;5036592;28;20980;-89
2022/08/31 15:13:48;;;;;;;2.80;2.37;;;30.10;1.00;;;;;;5036517;28;20458;-88
2022/08/31 15:20:18;;;;;;;3.50;2.20;;;29.70;1.00;;;;;;5037442;28;20471;-83
2022/08/31 15:22:48;;;;;;;2.97;2.40;;;29.80;1.00;;;;;;5046641;28;20848;-79
2022/08/31 15:25:49;;;;;;;3.80;2.77;;;30.70;1.00;;;;;;5017368;28;20840;-78
2022/08/31 15:28:51;;;;;;;2.60;2.40;;;31.20;1.00;;;;;;5036683;28;20428;-78
2022/08/31 15:31:51;;;;;;;2.93;2.73;;;31.30;1.00;;;;;;5037660;28;20570;-78
2022/08/31 15:34:26;;;;;;;4.33;2.60;;;31.20;1.00;;;;;;5029269;28;20411;-78
2022/08/31 15:36:57;;;;;;;2.83;2.63;;;31.00;1.00;;;;;;5040880;28;20446;-77
2022/08/31 15:40:18;;;;;;;2.83;2.63;;;30.80;1.00;;;;;;5042631;28;20434;-77
2022/08/31 15:52:53;;;;;;;6.53;3.30;;;29.70;1.00;;;;;;5046490;28;20499;-81
2022/08/31 15:55:48;;;;;;;8.20;3.40;;;29.50;1.00;;;;;;5048444;28;20471;-82
2022/08/31 15:58:52;;;;;;;3.60;3.30;;;29.30;1.00;;;;;;5023944;28;20468;-82
2022/08/31 16:01:50;;;;;;;4.20;3.57;;;29.10;1.00;;;;;;5051109;28;20483;-81
2022/08/31 16:04:42;;;;;;;6.47;3.80;;;29.00;1.00;;;;;;5055126;28;20391;-81
2022/08/31 16:07:25;;;;;;;4.07;3.77;;;28.80;1.00;;;;;;5034288;28;20409;-81
2022/08/31 16:09:51;;;;;;;8.73;3.60;;;28.60;1.00;;;;;;5034689;28;20423;-82
2022/08/31 16:12:51;;;;;;;5.00;3.90;;;28.30;1.00;;;;;;5035113;28;20454;-84
2022/08/31 16:15:50;;;;;;;4.33;3.93;;;28.10;1.00;;;;;;5021403;28;20250;-83
2022/08/31 16:18:49;;;;;;;4.37;3.97;;;27.90;1.00;;;;;;5033782;28;20431;-83
2022/08/31 16:21:20;;;;;;;5.53;4.13;;;27.70;1.00;;;;;;5046424;28;20427;-81
2022/08/31 16:24:00;;;;;;;4.30;3.90;;;27.60;1.00;;;;;;5042116;28;20494;-81
2022/08/31 16:27:18;;;;;;;4.90;4.40;;;27.50;1.00;;;;;;5034478;28;20506;-81
2022/08/31 16:30:18;;;;;;;5.60;3.77;;;27.50;1.00;;;;;;5032769;28;20445;-82
2022/08/31 16:33:19;;;;;;;5.73;3.90;;;28.60;1.00;;;;;;5034118;28;20600;-83
2022/08/31 16:35:48;;;;;;;4.40;3.90;;;29.70;1.00;;;;;;5034535;28;20482;-83
2022/08/31 16:38:18;;;;;;;4.30;3.77;;;29.80;1.00;;;;;;5034140;28;20411;-82
2022/08/31 16:40:44;;;;;;;11.03;4.17;;;29.70;1.00;;;;;;5035825;28;20456;-82
2022/08/31 16:49:55;;;;;;;6.63;3.90;;;31.30;1.00;;;;;;5033979;28;20496;-82
2022/08/31 16:52:36;;;;;;;5.30;4.50;;;30.90;1.00;;;;;;5036996;28;20898;-82
2022/08/31 16:55:18;;;;;;;7.17;4.20;;;30.60;1.00;;;;;;5032352;28;20437;-81
2022/08/31 16:58:19;;;;;;;4.00;3.70;;;30.30;1.00;;;;;;5035486;28;20417;-82
2022/08/31 17:01:22;;;;;;;5.07;4.20;;;29.90;1.00;;;;;;5048390;28;20430;-81
2022/08/31 17:04:19;;;;;;;6.10;4.10;;;29.30;1.00;;;;;;5023576;28;20432;-82
2022/08/31 17:06:48;;;;;;;6.43;4.93;;;28.90;1.00;;;;;;5039274;28;20508;-83
2022/08/31 17:12:49;;;;;;;5.40;4.57;;;28.30;1.00;;;;;;5046197;28;20478;-81
2022/08/31 17:15:54;;;;;;;5.67;4.20;;;28.00;1.00;;;;;;5033823;28;20393;-81
2022/08/31 17:18:50;;;;;;;6.13;4.80;;;27.70;1.00;;;;;;5019102;28;20423;-81
2022/08/31 17:21:21;;;;;;;11.30;4.60;;;27.40;1.00;;;;;;5045341;28;20978;-81
2022/08/31 17:23:50;;;;;;;5.73;5.03;;;27.20;1.00;;;;;;5033709;28;20507;-81
2022/08/31 17:26:19;;;;;;;5.00;4.60;;;26.80;1.00;;;;;;5035629;28;20472;-84
2022/08/31 17:32:17;;;;;;;5.17;4.67;;;26.20;1.00;;;;;;5036201;28;20515;-82
2022/08/31 17:35:18;;;;;;;9.27;5.07;;;25.90;1.00;;;;;;5042313;28;20427;-82
2022/08/31 17:37:49;;;;;;;5.30;4.80;;;25.60;1.00;;;;;;5013894;28;20406;-83
2022/08/31 17:40:48;;;;;;;7.27;5.70;;;25.20;1.00;;;;;;5024261;28;20424;-80
2022/08/31 17:43:18;;;;;;;6.60;5.80;;;24.90;1.00;;;;;;5028299;28;20437;-80
2022/08/31 17:49:06;;;;;;;7.33;5.90;;;24.60;1.00;;;;;;5016632;28;20410;-81
2022/08/31 17:51:50;;;;;;;10.70;5.80;;;24.30;1.00;;;;;;5030351;28;20821;-81
2022/08/31 17:55:00;;;;;;;12.63;5.50;;;24.10;1.00;;;;;;5036193;28;20226;-82
2022/08/31 17:58:18;;;;;;;7.23;5.90;;;23.90;1.00;;;;;;5035060;28;20425;-81
2022/08/31 18:01:06;;;;;;;6.03;5.43;;;23.70;1.00;;;;;;5032256;28;20426;-80
2022/08/31 18:07:18;;;;;;;8.63;6.00;;;23.40;1.00;;;;;;5057035;28;20404;-79
2022/08/31 18:09:55;;;;;;;7.70;5.77;;;23.20;1.00;;;;;;5039242;28;20478;-79
2022/08/31 18:15:43;;;;;;;9.47;5.80;;;22.90;1.00;;;;;;5028610;28;20920;-80
2022/08/31 18:18:48;;;;;;;7.17;5.23;;;22.80;1.00;;;;;;5019778;28;20510;-79
2022/08/31 18:21:16;;;;;;;9.13;5.80;;;22.60;1.00;;;;;;5032382;28;20918;-76
2022/08/31 18:23:51;;;;;;;10.80;5.30;;;22.50;1.00;;;;;;5025223;28;20428;-82
2022/08/31 18:26:49;;;;;;;12.27;5.40;;;22.40;1.00;;;;;;5026015;28;20418;-83
2022/08/31 18:29:21;;;;;;;6.40;5.17;;;22.30;1.00;;;;;;5036988;28;20915;-82
2022/08/31 18:32:18;;;;;;;10.93;5.57;;;22.20;1.00;;;;;;5029634;28;20600;-82
2022/08/31 18:35:16;;;;;;;6.33;5.73;;;22.00;1.00;;;;;;5028008;28;20422;-79